createdAt,value
2019-01-29T00:00:07.407Z,7.21
2019-01-29T00:02:40.699Z,7.21
2019-01-29T00:05:12.348Z,7.18
2019-01-29T00:07:45.587Z,7.16
2019-01-29T00:10:19.052Z,7.20
2019-01-29T00:12:50.770Z,7.27
2019-01-29T00:15:22.532Z,7.28
2019-01-29T00:17:57.221Z,7.27
2019-01-29T00:20:29.492Z,7.31
2019-01-29T00:23:00.934Z,7.27
2019-01-29T00:25:32.637Z,7.26
2019-01-29T00:28:05.386Z,7.27
2019-01-29T00:30:37.526Z,7.33
2019-01-29T00:33:09.115Z,7.31
2019-01-29T00:35:41.790Z,7.28
2019-01-29T00:38:13.415Z,7.23
2019-01-29T00:40:45.156Z,7.25
2019-01-29T00:43:16.980Z,7.22
2019-01-29T00:45:48.573Z,7.19
2019-01-29T00:48:20.042Z,7.07
2019-01-29T00:50:51.616Z,7.10
2019-01-29T00:53:23.220Z,7.07
2019-01-29T00:55:56.751Z,7.11
2019-01-29T00:58:30.364Z,7.13
2019-01-29T01:01:01.950Z,7.18
2019-01-29T01:03:35.133Z,7.12
2019-01-29T01:06:08.474Z,7.10
2019-01-29T01:08:40.049Z,7.11
2019-01-29T01:11:15.104Z,7.09
2019-01-29T01:13:48.217Z,7.04
2019-01-29T01:16:20.697Z,7.01
2019-01-29T01:18:52.475Z,6.89
2019-01-29T01:21:24.001Z,7.02
2019-01-29T01:23:55.547Z,7.02
2019-01-29T01:26:27.886Z,7.00
2019-01-29T01:28:59.411Z,6.99
2019-01-29T01:31:31.037Z,6.99
2019-01-29T01:34:14.145Z,6.96
2019-01-29T01:36:48.766Z,6.93
2019-01-29T01:39:24.430Z,6.92
2019-01-29T01:41:57.424Z,6.93
2019-01-29T01:44:30.285Z,6.98
2019-01-29T01:47:03.327Z,6.98
2019-01-29T01:49:37.262Z,7.00
2019-01-29T01:52:08.951Z,6.99
2019-01-29T01:54:40.573Z,7.00
2019-01-29T01:57:12.051Z,6.98
2019-01-29T01:59:43.651Z,6.99
2019-01-29T02:02:15.465Z,7.00
2019-01-29T02:04:47.231Z,6.91
2019-01-29T02:07:20.449Z,6.87
2019-01-29T02:09:52.136Z,6.88
2019-01-29T02:12:25.554Z,6.84
2019-01-29T02:14:57.424Z,6.85
2019-01-29T02:17:29.915Z,6.81
2019-01-29T02:20:02.583Z,6.76
2019-01-29T02:22:38.847Z,6.70
2019-01-29T02:25:12.190Z,6.75
2019-01-29T02:27:43.776Z,6.74
2019-01-29T02:30:17.789Z,6.65
2019-01-29T02:32:49.307Z,6.66
2019-01-29T02:35:22.708Z,6.71
2019-01-29T02:37:54.941Z,6.77
2019-01-29T02:40:30.218Z,6.78
2019-01-29T02:43:01.747Z,6.69
2019-01-29T02:45:33.371Z,6.69
2019-01-29T02:48:05.112Z,6.69
2019-01-29T02:50:43.935Z,6.71
2019-01-29T02:53:18.288Z,6.72
2019-01-29T02:55:48.800Z,6.68
2019-01-29T02:58:20.470Z,6.70
2019-01-29T03:00:56.562Z,6.69
2019-01-29T03:03:31.030Z,6.68
2019-01-29T03:06:02.661Z,6.69
2019-01-29T03:08:35.371Z,6.77
2019-01-29T03:11:07.462Z,6.77
2019-01-29T03:13:39.962Z,6.85
2019-01-29T03:16:13.182Z,6.92
2019-01-29T03:18:44.854Z,6.94
2019-01-29T03:21:16.395Z,6.88
2019-01-29T03:23:49.017Z,6.87
2019-01-29T03:26:20.971Z,6.91
2019-01-29T03:28:53.963Z,7.04
2019-01-29T03:31:25.514Z,7.21
2019-01-29T03:33:58.225Z,7.23
2019-01-29T03:36:29.868Z,7.18
2019-01-29T03:39:02.074Z,7.16
2019-01-29T03:41:35.613Z,7.14
2019-01-29T03:44:08.579Z,7.16
2019-01-29T03:46:41.640Z,7.18
2019-01-29T03:49:16.843Z,7.15
2019-01-29T03:51:48.551Z,7.18
2019-01-29T03:54:20.801Z,7.14
2019-01-29T03:56:53.339Z,7.21
2019-01-29T03:59:24.986Z,7.29
2019-01-29T04:01:58.048Z,7.32
2019-01-29T04:04:33.809Z,7.37
2019-01-29T04:07:06.130Z,7.36
2019-01-29T04:09:38.309Z,7.34
2019-01-29T04:12:10.084Z,7.33
2019-01-29T04:14:41.562Z,7.28
2019-01-29T04:17:14.468Z,7.23
2019-01-29T04:19:46.928Z,7.23
2019-01-29T04:22:18.456Z,7.23
2019-01-29T04:24:50.017Z,7.18
2019-01-29T04:27:23.781Z,7.13
2019-01-29T04:29:57.450Z,7.07
2019-01-29T04:32:30.445Z,7.01
2019-01-29T04:35:02.037Z,6.98
2019-01-29T04:37:33.643Z,6.87
2019-01-29T04:40:05.834Z,7.01
2019-01-29T04:42:37.471Z,6.97
2019-01-29T04:45:12.290Z,6.95
2019-01-29T04:47:46.097Z,6.92
2019-01-29T04:50:23.060Z,6.93
2019-01-29T04:52:56.836Z,6.94
2019-01-29T04:55:30.506Z,6.95
2019-01-29T04:58:02.008Z,7.00
2019-01-29T05:00:34.679Z,7.01
2019-01-29T05:03:06.301Z,7.07
2019-01-29T05:05:39.644Z,7.07
2019-01-29T05:08:11.882Z,7.02
2019-01-29T05:10:43.413Z,6.97
2019-01-29T05:13:15.174Z,6.95
2019-01-29T05:15:52.477Z,6.95
2019-01-29T05:18:25.574Z,6.85
2019-01-29T05:20:57.541Z,6.80
2019-01-29T05:23:29.199Z,6.72
2019-01-29T05:26:01.724Z,6.75
2019-01-29T05:28:35.733Z,6.87
2019-01-29T05:31:07.741Z,6.94
2019-01-29T05:33:41.602Z,7.01
2019-01-29T05:36:13.884Z,7.04
2019-01-29T05:38:45.462Z,7.12
2019-01-29T05:41:17.187Z,7.21
2019-01-29T05:43:49.265Z,7.23
2019-01-29T05:46:20.797Z,7.26
2019-01-29T05:48:52.679Z,7.30
2019-01-29T05:51:24.563Z,7.29
2019-01-29T05:53:58.541Z,7.28
2019-01-29T05:56:35.167Z,7.31
2019-01-29T05:59:07.972Z,7.30
2019-01-29T06:01:42.621Z,7.34
2019-01-29T06:04:14.715Z,7.35
2019-01-29T06:06:48.015Z,7.37
2019-01-29T06:09:19.625Z,7.37
2019-01-29T06:11:51.214Z,7.44
2019-01-29T06:14:23.346Z,7.42
2019-01-29T06:16:55.251Z,7.45
2019-01-29T06:19:27.871Z,7.44
2019-01-29T06:21:59.561Z,7.47
2019-01-29T06:24:31.573Z,7.48
2019-01-29T06:27:03.819Z,7.56
2019-01-29T06:29:35.977Z,7.66
2019-01-29T06:32:07.639Z,7.70
2019-01-29T06:34:42.895Z,7.72
2019-01-29T06:37:14.780Z,7.76
2019-01-29T06:39:46.690Z,7.87
2019-01-29T06:42:19.514Z,7.94
2019-01-29T06:44:52.117Z,8.07
2019-01-29T06:47:25.165Z,8.14
2019-01-29T06:49:56.681Z,8.18
2019-01-29T06:52:28.242Z,8.20
2019-01-29T06:55:01.731Z,8.17
2019-01-29T06:57:34.357Z,8.15
2019-01-29T07:00:10.365Z,8.14
2019-01-29T07:02:42.278Z,8.15
2019-01-29T07:05:16.270Z,8.19
2019-01-29T07:07:49.223Z,8.20
2019-01-29T07:10:21.698Z,8.17
2019-01-29T07:12:55.426Z,8.21
2019-01-29T07:15:45.075Z,8.29
2019-01-29T07:18:41.320Z,8.39
2019-01-29T07:21:13.246Z,8.45
2019-01-29T07:23:49.851Z,8.55
2019-01-29T07:26:21.481Z,8.63
2019-01-29T07:28:57.746Z,8.67
2019-01-29T07:31:29.317Z,8.66
2019-01-29T07:34:02.220Z,8.70
2019-01-29T07:36:38.744Z,8.73
2019-01-29T07:39:12.603Z,8.73
2019-01-29T07:41:44.163Z,8.81
2019-01-29T07:44:16.727Z,8.80
2019-01-29T07:46:48.525Z,8.83
2019-01-29T07:49:20.759Z,8.90
2019-01-29T07:51:53.458Z,9.01
2019-01-29T07:54:33.268Z,9.14
2019-01-29T07:57:03.843Z,9.26
2019-01-29T07:59:36.500Z,9.42
2019-01-29T08:02:08.860Z,9.59
2019-01-29T08:04:40.420Z,9.64
2019-01-29T08:07:12.014Z,9.58
2019-01-29T08:09:43.611Z,9.51
2019-01-29T08:12:16.441Z,9.44
2019-01-29T08:14:49.164Z,9.40
2019-01-29T08:17:21.332Z,9.36
2019-01-29T08:20:01.356Z,9.42
2019-01-29T08:22:33.092Z,9.56
2019-01-29T08:25:05.143Z,9.72
2019-01-29T08:27:36.746Z,9.76
2019-01-29T08:30:08.334Z,9.72
2019-01-29T08:32:40.083Z,9.76
2019-01-29T08:35:11.827Z,9.79
2019-01-29T08:37:43.421Z,9.80
2019-01-29T08:40:15.755Z,9.87
2019-01-29T08:42:47.385Z,9.93
2019-01-29T08:45:19.361Z,9.96
2019-01-29T08:47:54.056Z,10.00
2019-01-29T08:50:27.411Z,10.02
2019-01-29T08:52:59.007Z,9.96
2019-01-29T08:55:32.877Z,9.92
2019-01-29T08:58:05.247Z,9.87
2019-01-29T09:00:38.001Z,9.84
2019-01-29T09:03:09.538Z,9.80
2019-01-29T09:05:41.488Z,9.83
2019-01-29T09:08:15.636Z,9.79
2019-01-29T09:10:49.054Z,9.82
2019-01-29T09:13:20.581Z,9.85
2019-01-29T09:15:54.390Z,9.90
2019-01-29T09:18:25.983Z,9.91
2019-01-29T09:21:00.398Z,9.88
2019-01-29T09:23:32.911Z,9.87
2019-01-29T09:26:04.804Z,9.91
2019-01-29T09:28:36.811Z,10.00
2019-01-29T09:31:08.677Z,10.12
2019-01-29T09:33:42.506Z,10.23
2019-01-29T09:36:42.504Z,10.29
2019-01-29T09:39:17.839Z,10.36
2019-01-29T09:41:49.396Z,10.35
2019-01-29T09:44:20.951Z,10.32
2019-01-29T09:46:52.444Z,10.37
2019-01-29T09:49:26.392Z,10.47
2019-01-29T09:51:58.249Z,10.55
2019-01-29T09:54:29.985Z,10.81
2019-01-29T09:57:01.928Z,10.94
2019-01-29T09:59:35.444Z,10.96
2019-01-29T10:02:06.869Z,10.88
2019-01-29T10:04:46.202Z,11.00
2019-01-29T10:07:20.234Z,10.79
2019-01-29T10:09:54.118Z,10.67
2019-01-29T10:12:25.692Z,10.62
2019-01-29T10:14:57.198Z,10.65
2019-01-29T10:17:29.357Z,10.63
2019-01-29T10:20:03.329Z,10.45
2019-01-29T10:22:35.275Z,10.41
2019-01-29T10:25:10.068Z,10.35
2019-01-29T10:27:48.021Z,10.40
2019-01-29T10:30:24.143Z,10.38
2019-01-29T10:32:55.919Z,10.32
2019-01-29T10:35:30.632Z,10.42
2019-01-29T10:38:05.660Z,10.32
2019-01-29T10:40:58.030Z,10.19
2019-01-29T10:43:32.406Z,10.06
2019-01-29T10:46:05.504Z,10.02
2019-01-29T10:48:37.041Z,9.89
2019-01-29T10:51:08.805Z,9.82
2019-01-29T10:53:41.901Z,9.80
2019-01-29T10:56:15.013Z,9.81
2019-01-29T10:58:46.591Z,9.84
2019-01-29T11:01:20.789Z,9.86
2019-01-29T11:03:54.024Z,9.82
2019-01-29T11:06:25.974Z,9.83
2019-01-29T11:08:57.937Z,9.76
2019-01-29T11:11:30.013Z,9.77
2019-01-29T11:14:02.695Z,9.62
2019-01-29T11:16:35.141Z,9.51
2019-01-29T11:19:06.948Z,9.53
2019-01-29T11:21:38.956Z,9.55
2019-01-29T11:24:13.000Z,9.47
2019-01-29T11:26:47.313Z,9.46
2019-01-29T11:29:21.178Z,9.39
2019-01-29T11:31:53.940Z,9.42
2019-01-29T11:34:26.778Z,9.47
2019-01-29T11:36:58.668Z,9.49
2019-01-29T11:39:30.697Z,9.55
2019-01-29T11:42:02.218Z,9.56
2019-01-29T11:44:34.603Z,9.61
2019-01-29T11:47:06.673Z,9.66
2019-01-29T11:49:38.344Z,9.66
2019-01-29T11:52:12.223Z,9.64
2019-01-29T11:54:44.210Z,9.69
2019-01-29T11:57:17.441Z,9.63
2019-01-29T11:59:51.321Z,9.53
2019-01-29T12:02:28.257Z,9.60
2019-01-29T12:04:56.507Z,9.59
2019-01-29T12:07:28.224Z,9.54
2019-01-29T12:10:00.567Z,9.50
2019-01-29T12:12:34.729Z,9.50
2019-01-29T12:15:08.200Z,9.57
2019-01-29T12:17:43.569Z,9.67
2019-01-29T12:20:27.357Z,9.67
2019-01-29T12:23:01.553Z,9.56
2019-01-29T12:25:34.797Z,9.49
2019-01-29T12:28:30.078Z,9.45
2019-01-29T12:31:05.204Z,9.35
2019-01-29T12:34:17.885Z,9.25
2019-01-29T12:37:12.372Z,9.21
2019-01-29T12:39:44.185Z,9.20
2019-01-29T12:42:36.081Z,9.16
2019-01-29T12:45:10.757Z,9.18
2019-01-29T12:50:56.773Z,9.22
2019-01-29T12:53:37.441Z,9.22
2019-01-29T12:56:21.280Z,9.28
2019-01-29T12:59:00.598Z,9.22
2019-01-29T13:01:32.141Z,9.21
2019-01-29T13:04:03.727Z,9.19
2019-01-29T13:06:35.205Z,9.26
2019-01-29T13:09:10.012Z,9.29
2019-01-29T13:11:44.031Z,9.39
2019-01-29T13:14:15.482Z,9.42
2019-01-29T13:16:49.329Z,9.39
2019-01-29T13:19:20.869Z,9.39
2019-01-29T13:21:52.508Z,9.36
2019-01-29T13:24:25.462Z,9.34
2019-01-29T13:26:57.570Z,9.30
2019-01-29T13:29:30.841Z,9.31
2019-01-29T13:32:03.975Z,9.27
2019-01-29T13:34:35.994Z,9.28
2019-01-29T13:37:09.170Z,9.23
2019-01-29T13:39:42.114Z,9.09
2019-01-29T13:42:14.414Z,8.95
2019-01-29T13:44:45.913Z,8.88
2019-01-29T13:47:17.577Z,8.74
2019-01-29T13:49:49.044Z,8.66
2019-01-29T13:52:21.225Z,8.64
2019-01-29T13:54:52.781Z,8.66
2019-01-29T13:57:28.173Z,8.61
2019-01-29T14:00:00.683Z,8.58
2019-01-29T14:02:32.674Z,8.57
2019-01-29T14:05:04.752Z,8.58
2019-01-29T14:07:36.443Z,8.51
2019-01-29T14:10:12.157Z,8.45
2019-01-29T14:12:44.082Z,8.38
2019-01-29T14:15:24.085Z,8.35
2019-01-29T14:17:56.459Z,8.39
2019-01-29T14:20:30.738Z,8.36
2019-01-29T14:23:02.283Z,8.37
2019-01-29T14:25:35.154Z,8.37
2019-01-29T14:28:09.527Z,8.38
2019-01-29T14:30:41.231Z,8.37
2019-01-29T14:33:12.907Z,8.33
2019-01-29T14:35:45.041Z,8.39
2019-01-29T14:39:21.429Z,8.43
2019-01-29T14:41:53.067Z,8.33
2019-01-29T14:44:28.563Z,8.23
2019-01-29T14:47:02.451Z,8.22
2019-01-29T14:49:34.010Z,8.20
2019-01-29T14:52:05.915Z,8.17
2019-01-29T14:54:39.195Z,8.13
2019-01-29T14:57:10.790Z,8.14
2019-01-29T14:59:44.859Z,8.16
2019-01-29T15:02:18.072Z,8.23
2019-01-29T15:04:49.624Z,8.17
2019-01-29T15:07:29.709Z,8.32
2019-01-29T15:09:54.800Z,8.34
2019-01-29T15:12:26.961Z,8.39
2019-01-29T15:14:59.480Z,8.47
2019-01-29T15:17:42.642Z,8.54
2019-01-29T15:20:17.052Z,8.65
2019-01-29T15:22:49.100Z,8.70
2019-01-29T15:25:20.651Z,8.71
2019-01-29T15:27:57.192Z,8.79
2019-01-29T15:30:29.073Z,8.81
2019-01-29T15:33:00.798Z,8.88
2019-01-29T15:35:32.550Z,8.98
2019-01-29T15:38:04.135Z,9.07
2019-01-29T15:40:36.122Z,9.00
2019-01-29T15:43:07.973Z,8.96
2019-01-29T15:45:41.333Z,8.87
2019-01-29T15:48:13.676Z,8.58
2019-01-29T15:50:46.812Z,8.39
2019-01-29T15:53:20.043Z,8.36
2019-01-29T15:55:52.485Z,8.31
2019-01-29T15:58:25.474Z,8.28
2019-01-29T16:00:57.711Z,8.33
2019-01-29T16:03:29.361Z,8.39
2019-01-29T16:06:02.692Z,8.45
2019-01-29T16:08:35.792Z,8.45
2019-01-29T16:11:08.053Z,8.43
2019-01-29T16:13:41.891Z,8.47
2019-01-29T16:16:13.897Z,8.44
2019-01-29T16:18:46.100Z,8.44
2019-01-29T16:21:17.848Z,8.46
2019-01-29T16:23:51.932Z,8.41
2019-01-29T16:26:24.043Z,8.51
2019-01-29T16:28:56.946Z,8.60
2019-01-29T16:31:29.937Z,8.66
2019-01-29T16:34:02.753Z,8.70
2019-01-29T16:36:35.859Z,8.75
2019-01-29T16:39:11.638Z,8.76
2019-01-29T16:41:43.235Z,8.74
2019-01-29T16:44:16.468Z,8.70
2019-01-29T16:46:48.064Z,8.59
2019-01-29T16:49:19.994Z,8.59
2019-01-29T16:51:53.332Z,8.53
2019-01-29T16:54:24.760Z,8.53
2019-01-29T16:56:59.490Z,8.52
2019-01-29T16:59:31.166Z,8.52
2019-01-29T17:02:02.862Z,8.63
2019-01-29T17:04:34.421Z,8.64
2019-01-29T17:07:08.192Z,8.73
2019-01-29T17:09:40.236Z,8.78
2019-01-29T17:12:17.075Z,8.87
2019-01-29T17:14:50.092Z,8.89
2019-01-29T17:17:24.005Z,8.98
2019-01-29T17:19:56.709Z,9.01
2019-01-29T17:22:28.901Z,9.04
2019-01-29T17:25:04.231Z,9.08
2019-01-29T17:27:40.363Z,9.07
2019-01-29T17:30:20.449Z,9.06
2019-01-29T17:32:52.536Z,9.06
2019-01-29T17:35:25.454Z,9.08
2019-01-29T17:37:57.015Z,9.06
2019-01-29T17:40:28.688Z,9.00
2019-01-29T17:43:00.287Z,8.97
2019-01-29T17:45:36.567Z,8.92
2019-01-29T17:48:08.730Z,8.90
2019-01-29T17:50:42.010Z,8.89
2019-01-29T17:53:13.641Z,8.85
2019-01-29T17:55:48.096Z,8.90
2019-01-29T17:58:22.012Z,8.93
2019-01-29T18:00:57.649Z,8.94
2019-01-29T18:03:29.451Z,9.05
2019-01-29T18:06:01.470Z,8.98
2019-01-29T18:08:36.039Z,8.88
2019-01-29T18:11:08.904Z,8.84
2019-01-29T18:13:40.982Z,8.76
2019-01-29T18:16:14.559Z,8.65
2019-01-29T18:18:47.766Z,8.46
2019-01-29T18:21:20.671Z,8.31
2019-01-29T18:23:53.683Z,8.00
2019-01-29T18:26:26.221Z,7.89
2019-01-29T18:28:59.301Z,7.94
2019-01-29T18:31:30.903Z,7.88
2019-01-29T18:34:03.136Z,7.92
2019-01-29T18:36:34.660Z,7.87
2019-01-29T18:39:12.416Z,7.80
2019-01-29T18:41:46.642Z,7.76
2019-01-29T18:44:22.498Z,7.74
2019-01-29T18:46:55.741Z,7.76
2019-01-29T18:49:28.964Z,7.69
2019-01-29T18:52:02.388Z,7.65
2019-01-29T18:54:34.581Z,7.65
2019-01-29T18:57:08.941Z,7.64
2019-01-29T18:59:41.981Z,7.66
2019-01-29T19:02:14.001Z,7.76
2019-01-29T19:04:46.870Z,7.86
2019-01-29T19:07:18.420Z,8.01
2019-01-29T19:09:51.271Z,8.13
2019-01-29T19:12:22.961Z,8.23
2019-01-29T19:14:58.316Z,8.24
2019-01-29T19:17:30.396Z,8.34
2019-01-29T19:20:02.753Z,8.43
2019-01-29T19:22:36.923Z,8.57
2019-01-29T19:25:11.500Z,8.64
2019-01-29T19:27:44.333Z,8.59
2019-01-29T19:30:26.487Z,8.60
2019-01-29T19:32:58.802Z,8.63
2019-01-29T19:35:30.492Z,8.64
2019-01-29T19:38:02.462Z,8.60
2019-01-29T19:40:36.282Z,8.57
2019-01-29T19:43:07.969Z,8.58
2019-01-29T19:45:39.975Z,8.59
2019-01-29T19:48:11.661Z,8.58
2019-01-29T19:50:43.859Z,8.59
2019-01-29T19:53:18.179Z,8.54
2019-01-29T19:55:51.082Z,8.53
2019-01-29T19:58:32.097Z,8.51
2019-01-29T20:00:59.487Z,8.53
2019-01-29T20:03:32.950Z,8.54
2019-01-29T20:06:05.899Z,8.57
2019-01-29T20:08:39.133Z,8.59
2019-01-29T20:11:11.324Z,8.63
2019-01-29T20:13:45.635Z,8.59
2019-01-29T20:16:19.691Z,8.56
2019-01-29T20:18:54.220Z,8.50
2019-01-29T20:21:25.820Z,8.56
2019-01-29T20:23:58.614Z,8.49
2019-01-29T20:26:32.503Z,8.48
2019-01-29T20:29:04.731Z,8.46
2019-01-29T20:31:36.417Z,8.44
2019-01-29T20:34:08.705Z,8.47
2019-01-29T20:36:40.336Z,8.42
2019-01-29T20:39:12.488Z,8.37
2019-01-29T20:41:45.311Z,8.24
2019-01-29T20:44:17.390Z,8.12
2019-01-29T20:46:49.037Z,8.13
2019-01-29T20:49:23.499Z,8.03
2019-01-29T20:51:55.387Z,8.00
2019-01-29T20:54:29.668Z,7.98
2019-01-29T20:57:01.335Z,8.03
2019-01-29T20:59:32.958Z,8.12
2019-01-29T21:02:05.135Z,8.14
2019-01-29T21:04:36.751Z,8.21
2019-01-29T21:07:08.892Z,8.20
2019-01-29T21:09:40.411Z,8.22
2019-01-29T21:12:13.674Z,8.25
2019-01-29T21:14:45.284Z,8.26
2019-01-29T21:17:18.211Z,8.30
2019-01-29T21:19:52.220Z,8.28
2019-01-29T21:22:25.902Z,8.29
2019-01-29T21:24:57.447Z,8.27
2019-01-29T21:27:31.737Z,8.24
2019-01-29T21:30:03.280Z,8.29
2019-01-29T21:32:35.038Z,8.27
2019-01-29T21:35:06.859Z,8.24
2019-01-29T21:37:39.773Z,8.04
2019-01-29T21:40:13.083Z,7.89
2019-01-29T21:42:46.022Z,7.69
2019-01-29T21:45:19.052Z,7.53
2019-01-29T21:47:50.591Z,7.34
2019-01-29T21:50:24.646Z,7.19
2019-01-29T21:52:56.067Z,7.17
2019-01-29T21:55:29.961Z,7.18
2019-01-29T21:58:02.798Z,7.26
2019-01-29T22:00:41.165Z,7.33
2019-01-29T22:03:14.541Z,7.37
2019-01-29T22:05:46.549Z,7.43
2019-01-29T22:08:18.458Z,7.52
2019-01-29T22:10:52.803Z,7.57
2019-01-29T22:13:24.335Z,7.59
2019-01-29T22:15:57.319Z,7.61
2019-01-29T22:18:30.759Z,7.59
2019-01-29T22:21:03.289Z,7.52
2019-01-29T22:23:39.018Z,7.48
2019-01-29T22:26:12.215Z,7.57
2019-01-29T22:28:58.193Z,7.60
2019-01-29T22:31:29.675Z,7.69
2019-01-29T22:34:01.133Z,7.70
2019-01-29T22:36:34.251Z,7.66
2019-01-29T22:39:09.300Z,7.59
2019-01-29T22:41:40.980Z,7.54
2019-01-29T22:44:12.611Z,7.53
2019-01-29T22:46:44.573Z,7.54
2019-01-29T22:49:18.311Z,7.62
2019-01-29T22:51:49.894Z,7.66
2019-01-29T22:54:33.234Z,7.73
2019-01-29T22:57:07.179Z,7.73
2019-01-29T22:59:38.659Z,7.72
2019-01-29T23:02:13.166Z,7.65
2019-01-29T23:04:49.685Z,7.60
2019-01-29T23:07:37.652Z,7.59
2019-01-29T23:10:27.204Z,7.65
2019-01-29T23:12:59.432Z,7.79
2019-01-29T23:15:31.895Z,7.88
2019-01-29T23:18:05.694Z,7.91
2019-01-29T23:20:39.296Z,7.95
2019-01-29T23:23:13.440Z,7.91
2019-01-29T23:25:46.562Z,7.83
2019-01-29T23:28:19.554Z,7.74
2019-01-29T23:30:51.115Z,7.70
2019-01-29T23:33:22.795Z,7.67
2019-01-29T23:35:54.811Z,7.71
2019-01-29T23:38:32.408Z,7.80
2019-01-29T23:41:07.502Z,7.79
2019-01-29T23:43:40.486Z,7.75
2019-01-29T23:46:13.465Z,7.66
2019-01-29T23:48:45.425Z,7.61
2019-01-29T23:51:17.313Z,7.58
2019-01-29T23:53:49.293Z,7.56
2019-01-29T23:56:24.083Z,7.62
2019-01-29T23:59:02.261Z,7.70
